createdAt,value
2018-12-17T00:00:20.747Z,101486.33
2018-12-17T00:02:49.048Z,101494.62
2018-12-17T00:05:17.240Z,101494.91
2018-12-17T00:07:45.586Z,101491.86
2018-12-17T00:10:13.873Z,101488.84
2018-12-17T00:12:42.076Z,101484.88
2018-12-17T00:15:10.315Z,101492.22
2018-12-17T00:17:38.518Z,101488.84
2018-12-17T00:20:07.804Z,101483.63
2018-12-17T00:22:35.975Z,101485.77
2018-12-17T00:25:04.376Z,101490.58
2018-12-17T00:27:32.563Z,101491.90
2018-12-17T00:30:00.873Z,101493.25
2018-12-17T00:32:29.229Z,101491.53
2018-12-17T00:34:57.391Z,101501.41
2018-12-17T00:37:29.473Z,101499.62
2018-12-17T00:39:58.254Z,101507.36
2018-12-17T00:42:26.527Z,101511.37
2018-12-17T00:44:54.705Z,101516.91
2018-12-17T00:47:22.985Z,101518.67
2018-12-17T00:49:51.176Z,101518.63
2018-12-17T00:52:19.363Z,101521.24
2018-12-17T00:54:47.624Z,101515.73
2018-12-17T00:57:15.984Z,101518.67
2018-12-17T00:59:44.257Z,101524.71
2018-12-17T01:02:33.145Z,101525.92
2018-12-17T01:05:01.365Z,101522.89
2018-12-17T01:07:30.716Z,101528.09
2018-12-17T01:09:59.197Z,101531.98
2018-12-17T01:12:27.473Z,101524.71
2018-12-17T01:14:55.813Z,101525.14
2018-12-17T01:17:25.089Z,101528.94
2018-12-17T01:19:53.416Z,101527.26
2018-12-17T01:22:21.668Z,101523.38
2018-12-17T01:24:49.969Z,101524.27
2018-12-17T01:27:25.960Z,101520.80
2018-12-17T01:29:54.175Z,101523.40
2018-12-17T01:32:22.460Z,101525.48
2018-12-17T01:34:50.631Z,101531.72
2018-12-17T01:37:18.885Z,101534.22
2018-12-17T01:39:47.264Z,101530.23
2018-12-17T01:42:15.516Z,101534.95
2018-12-17T01:44:43.757Z,101540.11
2018-12-17T01:47:11.958Z,101542.72
2018-12-17T01:49:40.266Z,101535.36
2018-12-17T01:52:08.437Z,101533.20
2018-12-17T01:54:36.624Z,101529.78
2018-12-17T01:57:05.093Z,101522.94
2018-12-17T01:59:33.354Z,101538.05
2018-12-17T02:02:01.576Z,101544.00
2018-12-17T02:04:29.838Z,101536.80
2018-12-17T02:06:58.181Z,101534.56
2018-12-17T02:09:26.462Z,101538.55
2018-12-17T02:11:54.687Z,101540.30
2018-12-17T02:14:22.924Z,101545.40
2018-12-17T02:16:51.226Z,101551.42
2018-12-17T02:19:19.446Z,101554.50
2018-12-17T02:21:47.819Z,101558.38
2018-12-17T02:24:16.014Z,101564.36
2018-12-17T02:26:44.306Z,101565.72
2018-12-17T02:29:12.555Z,101566.09
2018-12-17T02:31:40.747Z,101570.87
2018-12-17T02:34:08.935Z,101563.50
2018-12-17T02:36:37.160Z,101573.54
2018-12-17T02:39:07.964Z,101574.80
2018-12-17T02:41:36.252Z,101575.70
2018-12-17T02:44:05.136Z,101569.96
2018-12-17T02:46:33.391Z,101574.81
2018-12-17T02:49:01.597Z,101573.02
2018-12-17T02:51:30.040Z,101572.28
2018-12-17T02:53:58.231Z,101571.33
2018-12-17T02:56:26.517Z,101577.81
2018-12-17T02:58:54.727Z,101572.63
2018-12-17T03:01:23.000Z,101562.16
2018-12-17T03:03:51.267Z,101562.22
2018-12-17T03:06:19.453Z,101565.25
2018-12-17T03:08:47.793Z,101572.19
2018-12-17T03:11:15.956Z,101569.69
2018-12-17T03:13:50.527Z,101577.89
2018-12-17T03:16:19.745Z,101592.99
2018-12-17T03:18:47.947Z,101585.63
2018-12-17T03:21:16.234Z,101586.91
2018-12-17T03:23:44.412Z,101589.59
2018-12-17T03:26:12.636Z,101601.77
2018-12-17T03:28:40.819Z,101600.88
2018-12-17T03:31:09.068Z,101600.00
2018-12-17T03:33:37.303Z,101603.48
2018-12-17T03:36:05.532Z,101603.44
2018-12-17T03:38:33.747Z,101603.86
2018-12-17T03:41:02.017Z,101606.92
2018-12-17T03:43:30.261Z,101609.56
2018-12-17T03:46:00.126Z,101609.95
2018-12-17T03:48:28.800Z,101606.92
2018-12-17T03:50:57.003Z,101612.97
2018-12-17T03:53:25.217Z,101608.98
2018-12-17T03:55:53.497Z,101606.87
2018-12-17T03:58:21.775Z,101608.59
2018-12-17T04:00:49.946Z,101609.42
2018-12-17T04:03:18.194Z,101613.41
2018-12-17T04:05:49.893Z,101614.62
2018-12-17T04:08:18.109Z,101619.87
2018-12-17T04:10:46.360Z,101609.13
2018-12-17T04:13:14.568Z,101607.42
2018-12-17T04:15:42.845Z,101610.83
2018-12-17T04:18:11.105Z,101619.94
2018-12-17T04:20:39.330Z,101619.92
2018-12-17T04:23:07.472Z,101624.23
2018-12-17T04:25:35.706Z,101625.91
2018-12-17T04:28:04.002Z,101637.11
2018-12-17T04:30:32.180Z,101637.61
2018-12-17T04:33:00.369Z,101635.43
2018-12-17T04:35:28.634Z,101643.69
2018-12-17T04:37:56.893Z,101634.59
2018-12-17T04:40:25.073Z,101639.95
2018-12-17T04:42:53.267Z,101633.81
2018-12-17T04:45:21.552Z,101643.27
2018-12-17T04:47:49.814Z,101644.11
2018-12-17T04:50:17.988Z,101643.27
2018-12-17T04:52:46.340Z,101640.72
2018-12-17T04:55:14.538Z,101643.27
2018-12-17T04:57:43.054Z,101648.89
2018-12-17T05:00:11.409Z,101657.07
2018-12-17T05:02:39.574Z,101660.59
2018-12-17T05:05:08.446Z,101658.83
2018-12-17T05:07:36.639Z,101667.91
2018-12-17T05:10:05.954Z,101673.55
2018-12-17T05:12:34.210Z,101673.05
2018-12-17T05:15:03.765Z,101678.66
2018-12-17T05:17:32.227Z,101692.65
2018-12-17T05:20:00.484Z,101691.81
2018-12-17T05:22:28.781Z,101693.05
2018-12-17T05:24:57.204Z,101698.29
2018-12-17T05:27:25.409Z,101700.47
2018-12-17T05:29:53.612Z,101703.88
2018-12-17T05:32:22.157Z,101704.81
2018-12-17T05:34:50.434Z,101713.03
2018-12-17T05:37:18.773Z,101718.64
2018-12-17T05:39:47.037Z,101720.30
2018-12-17T05:42:15.289Z,101722.02
2018-12-17T05:44:43.459Z,101718.62
2018-12-17T05:47:11.626Z,101715.58
2018-12-17T05:49:39.957Z,101710.38
2018-12-17T05:52:08.386Z,101716.84
2018-12-17T05:54:36.579Z,101717.72
2018-12-17T05:57:04.921Z,101721.16
2018-12-17T05:59:33.302Z,101723.41
2018-12-17T06:02:01.496Z,101729.88
2018-12-17T06:04:29.768Z,101734.14
2018-12-17T06:06:57.935Z,101727.66
2018-12-17T06:09:26.215Z,101726.83
2018-12-17T06:11:54.621Z,101739.41
2018-12-17T06:14:22.901Z,101741.53
2018-12-17T06:16:51.125Z,101742.39
2018-12-17T06:19:19.311Z,101742.02
2018-12-17T06:21:47.497Z,101744.60
2018-12-17T06:24:15.855Z,101748.89
2018-12-17T06:26:52.342Z,101753.25
2018-12-17T06:29:35.387Z,101754.93
2018-12-17T06:31:58.954Z,101757.99
2018-12-17T06:34:27.103Z,101758.81
2018-12-17T06:37:00.565Z,101758.78
2018-12-17T06:39:28.777Z,101764.36
2018-12-17T06:41:56.952Z,101775.69
2018-12-17T06:44:25.276Z,101774.84
2018-12-17T06:46:53.612Z,101778.80
2018-12-17T06:49:21.830Z,101786.14
2018-12-17T06:51:51.115Z,101783.97
2018-12-17T06:54:20.892Z,101792.20
2018-12-17T06:56:49.064Z,101785.30
2018-12-17T06:59:17.421Z,101789.16
2018-12-17T07:01:46.184Z,101791.73
2018-12-17T07:04:14.467Z,101786.05
2018-12-17T07:06:42.615Z,101786.46
2018-12-17T07:09:13.758Z,101795.56
2018-12-17T07:11:42.024Z,101799.50
2018-12-17T07:14:10.196Z,101795.59
2018-12-17T07:16:38.464Z,101798.59
2018-12-17T07:19:06.660Z,101812.05
2018-12-17T07:21:34.849Z,101814.70
2018-12-17T07:24:03.039Z,101805.62
2018-12-17T07:26:31.282Z,101824.18
2018-12-17T07:28:59.464Z,101822.00
2018-12-17T07:31:27.594Z,101828.02
2018-12-17T07:33:55.854Z,101830.25
2018-12-17T07:36:24.149Z,101827.59
2018-12-17T07:38:52.376Z,101836.70
2018-12-17T07:41:20.586Z,101831.91
2018-12-17T07:43:48.932Z,101834.50
2018-12-17T07:46:17.255Z,101835.81
2018-12-17T07:48:46.150Z,101843.59
2018-12-17T07:51:14.329Z,101832.30
2018-12-17T07:53:42.963Z,101841.86
2018-12-17T07:56:11.299Z,101840.56
2018-12-17T07:58:39.649Z,101828.86
2018-12-17T08:01:07.892Z,101834.42
2018-12-17T08:03:36.140Z,101839.69
2018-12-17T08:06:04.584Z,101834.05
2018-12-17T08:08:35.608Z,101839.19
2018-12-17T08:11:03.151Z,101842.67
2018-12-17T08:13:31.595Z,101851.27
2018-12-17T08:15:59.889Z,101858.73
2018-12-17T08:18:28.199Z,101860.55
2018-12-17T08:20:57.539Z,101862.30
2018-12-17T08:23:25.837Z,101865.77
2018-12-17T08:25:54.123Z,101871.41
2018-12-17T08:28:22.321Z,101869.22
2018-12-17T08:30:50.472Z,101875.29
2018-12-17T08:33:18.684Z,101885.65
2018-12-17T08:35:47.085Z,101885.72
2018-12-17T08:38:15.495Z,101879.64
2018-12-17T08:40:43.670Z,101882.66
2018-12-17T08:43:12.748Z,101883.89
2018-12-17T08:45:41.040Z,101884.41
2018-12-17T08:48:09.336Z,101890.01
2018-12-17T08:50:37.724Z,101888.69
2018-12-17T08:53:05.992Z,101891.66
2018-12-17T08:55:34.340Z,101894.72
2018-12-17T08:58:02.657Z,101890.81
2018-12-17T09:00:30.827Z,101887.30
2018-12-17T09:02:59.001Z,101884.63
2018-12-17T09:05:27.172Z,101885.58
2018-12-17T09:07:57.399Z,101893.41
2018-12-17T09:13:25.851Z,101898.98
2018-12-17T09:15:54.339Z,101902.50
2018-12-17T09:18:25.390Z,101909.34
2018-12-17T09:20:53.687Z,101902.36
2018-12-17T09:23:21.869Z,101903.80
2018-12-17T09:25:50.116Z,101910.66
2018-12-17T09:28:18.466Z,101911.47
2018-12-17T09:30:46.849Z,101918.50
2018-12-17T09:33:15.110Z,101919.20
2018-12-17T09:35:43.416Z,101919.23
2018-12-17T09:38:11.627Z,101919.23
2018-12-17T09:40:39.916Z,101921.38
2018-12-17T09:43:08.436Z,101925.33
2018-12-17T09:45:36.700Z,101919.28
2018-12-17T09:48:05.034Z,101913.11
2018-12-17T09:50:33.313Z,101921.03
2018-12-17T09:53:01.468Z,101917.13
2018-12-17T09:55:29.744Z,101923.18
2018-12-17T09:57:58.693Z,101924.48
2018-12-17T10:00:28.949Z,101925.40
2018-12-17T10:02:57.338Z,101925.33
2018-12-17T10:05:25.782Z,101922.74
2018-12-17T10:07:53.979Z,101925.34
2018-12-17T10:10:22.154Z,101920.92
2018-12-17T10:12:50.352Z,101926.20
2018-12-17T10:15:18.517Z,101924.08
2018-12-17T10:17:46.887Z,101924.48
2018-12-17T10:20:15.048Z,101917.06
2018-12-17T10:22:43.222Z,101915.22
2018-12-17T10:25:11.609Z,101911.31
2018-12-17T10:27:39.851Z,101900.94
2018-12-17T10:30:08.143Z,101907.41
2018-12-17T10:32:36.562Z,101909.59
2018-12-17T10:35:05.235Z,101908.69
2018-12-17T10:37:33.453Z,101913.87
2018-12-17T10:40:01.738Z,101915.18
2018-12-17T10:42:29.949Z,101902.58
2018-12-17T10:44:58.149Z,101901.23
2018-12-17T10:47:26.459Z,101905.09
2018-12-17T10:49:54.677Z,101908.52
2018-12-17T10:52:22.949Z,101908.50
2018-12-17T10:54:51.129Z,101911.98
2018-12-17T10:57:19.340Z,101917.59
2018-12-17T10:59:47.588Z,101908.44
2018-12-17T11:02:20.852Z,101909.73
2018-12-17T11:04:54.049Z,101912.30
2018-12-17T11:07:22.259Z,101917.89
2018-12-17T11:09:50.637Z,101910.54
2018-12-17T11:12:20.071Z,101911.37
2018-12-17T11:14:48.376Z,101913.13
2018-12-17T11:17:16.560Z,101900.97
2018-12-17T11:19:44.769Z,101904.85
2018-12-17T11:22:13.069Z,101904.81
2018-12-17T11:24:41.268Z,101902.61
2018-12-17T11:27:09.477Z,101901.32
2018-12-17T11:29:37.821Z,101904.75
2018-12-17T11:32:11.574Z,101909.13
2018-12-17T11:34:36.263Z,101907.83
2018-12-17T11:37:04.603Z,101904.23
2018-12-17T11:39:32.797Z,101895.91
2018-12-17T11:42:01.056Z,101894.17
2018-12-17T11:44:29.323Z,101901.90
2018-12-17T11:46:57.530Z,101898.08
2018-12-17T11:49:25.809Z,101905.43
2018-12-17T11:51:54.152Z,101901.10
2018-12-17T11:54:22.449Z,101892.86
2018-12-17T11:58:12.008Z,101897.61
2018-12-17T12:00:43.721Z,101884.92
2018-12-17T12:03:12.019Z,101887.97
2018-12-17T12:05:40.175Z,101884.06
2018-12-17T12:08:08.406Z,101887.00
2018-12-17T12:10:36.597Z,101885.75
2018-12-17T12:13:04.956Z,101901.23
2018-12-17T12:15:33.321Z,101904.86
2018-12-17T12:18:01.496Z,101904.86
2018-12-17T12:20:29.799Z,101909.23
2018-12-17T12:22:58.150Z,101901.34
2018-12-17T12:25:26.509Z,101902.16
2018-12-17T12:27:54.764Z,101897.30
2018-12-17T12:30:22.987Z,101905.98
2018-12-17T12:32:51.155Z,101901.17
2018-12-17T12:35:19.343Z,101903.86
2018-12-17T12:37:47.584Z,101902.48
2018-12-17T12:40:15.886Z,101900.33
2018-12-17T12:42:51.223Z,101893.70
2018-12-17T12:45:14.391Z,101909.00
2018-12-17T12:47:42.564Z,101915.51
2018-12-17T12:50:10.869Z,101913.90
2018-12-17T12:52:39.228Z,101918.20
2018-12-17T12:55:07.700Z,101926.88
2018-12-17T12:57:35.950Z,101929.45
2018-12-17T13:00:06.530Z,101933.77
2018-12-17T13:02:40.634Z,101938.05
2018-12-17T13:05:08.970Z,101929.09
2018-12-17T13:07:37.160Z,101931.22
2018-12-17T13:10:09.096Z,101932.88
2018-12-17T13:12:37.327Z,101932.48
2018-12-17T13:15:06.828Z,101942.48
2018-12-17T13:17:35.043Z,101936.80
2018-12-17T13:20:05.612Z,101934.72
2018-12-17T13:22:34.490Z,101932.94
2018-12-17T13:25:02.719Z,101933.60
2018-12-17T13:27:30.947Z,101926.41
2018-12-17T13:29:59.232Z,101936.31
2018-12-17T13:32:27.501Z,101936.27
2018-12-17T13:34:55.659Z,101933.66
2018-12-17T13:37:23.921Z,101936.20
2018-12-17T13:39:52.107Z,101945.97
2018-12-17T13:42:20.301Z,101944.45
2018-12-17T13:44:52.290Z,101941.16
2018-12-17T13:47:20.475Z,101945.04
2018-12-17T13:49:48.824Z,101936.31
2018-12-17T13:52:22.391Z,101944.58
2018-12-17T13:54:50.733Z,101945.86
2018-12-17T13:57:18.981Z,101954.12
2018-12-17T13:59:47.289Z,101949.34
2018-12-17T14:02:15.625Z,101945.86
2018-12-17T14:04:43.809Z,101951.19
2018-12-17T14:07:12.024Z,101951.20
2018-12-17T14:09:45.643Z,101949.84
2018-12-17T14:12:13.812Z,101948.48
2018-12-17T14:14:41.942Z,101954.56
2018-12-17T14:17:15.424Z,101951.23
2018-12-17T14:19:47.872Z,101953.86
2018-12-17T14:22:16.058Z,101953.80
2018-12-17T14:24:44.246Z,101962.41
2018-12-17T14:27:12.565Z,101961.58
2018-12-17T14:29:40.740Z,101966.06
2018-12-17T14:32:08.981Z,101968.58
2018-12-17T14:34:40.423Z,101966.91
2018-12-17T14:37:08.678Z,101964.77
2018-12-17T14:39:36.904Z,101972.95
2018-12-17T14:42:05.236Z,101969.00
2018-12-17T14:44:34.826Z,101972.89
2018-12-17T14:47:03.659Z,101964.19
2018-12-17T14:49:31.955Z,101964.23
2018-12-17T14:52:00.112Z,101966.38
2018-12-17T14:54:28.464Z,101971.23
2018-12-17T14:56:56.664Z,101972.95
2018-12-17T15:02:32.909Z,101988.63
2018-12-17T15:05:02.107Z,101989.09
2018-12-17T15:07:30.482Z,101991.58
2018-12-17T15:09:59.155Z,101997.27
2018-12-17T15:12:28.611Z,101998.08
2018-12-17T15:14:57.206Z,101997.73
2018-12-17T15:24:21.240Z,102013.28
2018-12-17T15:26:49.573Z,102018.50
2018-12-17T15:29:17.733Z,102016.78
2018-12-17T15:31:45.968Z,102011.92
2018-12-17T15:34:14.130Z,102018.05
2018-12-17T15:36:42.479Z,102022.87
2018-12-17T15:39:10.980Z,102019.39
2018-12-17T15:41:39.234Z,102023.24
2018-12-17T15:44:07.422Z,102026.73
2018-12-17T15:46:35.703Z,102026.67
2018-12-17T15:49:04.051Z,102030.50
2018-12-17T15:51:32.974Z,102027.00
2018-12-17T15:54:01.261Z,102033.59
2018-12-17T15:56:29.464Z,102034.94
2018-12-17T15:58:57.706Z,102031.44
2018-12-17T16:01:28.085Z,102037.53
2018-12-17T16:03:56.283Z,102037.09
2018-12-17T16:06:24.505Z,102037.97
2018-12-17T16:08:52.788Z,102037.97
2018-12-17T16:11:20.948Z,102037.89
2018-12-17T16:13:49.219Z,102039.68
2018-12-17T16:16:17.685Z,102040.14
2018-12-17T16:18:46.208Z,102035.32
2018-12-17T16:21:14.441Z,102035.25
2018-12-17T16:23:42.733Z,102040.58
2018-12-17T16:26:11.017Z,102043.95
2018-12-17T16:28:39.281Z,102044.88
2018-12-17T16:31:07.486Z,102048.13
2018-12-17T16:33:35.704Z,102047.27
2018-12-17T16:36:04.066Z,102056.45
2018-12-17T16:38:32.336Z,102054.39
2018-12-17T16:41:01.080Z,102048.23
2018-12-17T16:43:29.327Z,102042.91
2018-12-17T16:45:57.894Z,102044.10
2018-12-17T16:48:26.149Z,102050.02
2018-12-17T16:50:54.463Z,102059.59
2018-12-17T16:53:22.728Z,102066.55
2018-12-17T16:55:51.049Z,102064.85
2018-12-17T16:58:19.228Z,102067.94
2018-12-17T17:00:49.146Z,102072.59
2018-12-17T17:03:17.311Z,102075.17
2018-12-17T17:05:45.590Z,102081.80
2018-12-17T17:08:13.893Z,102081.36
2018-12-17T17:10:42.173Z,102077.86
2018-12-17T17:13:10.455Z,102085.66
2018-12-17T17:15:45.126Z,102077.37
2018-12-17T17:18:13.349Z,102078.72
2018-12-17T17:20:42.320Z,102084.31
2018-12-17T17:23:10.680Z,102078.77
2018-12-17T17:25:38.970Z,102085.27
2018-12-17T17:28:07.246Z,102089.62
2018-12-17T17:30:35.537Z,102094.37
2018-12-17T17:33:04.232Z,102096.15
2018-12-17T17:35:33.933Z,102093.52
2018-12-17T17:38:02.226Z,102103.98
2018-12-17T17:40:30.449Z,102098.78
2018-12-17T17:42:58.830Z,102100.06
2018-12-17T17:45:27.105Z,102099.62
2018-12-17T17:47:55.966Z,102099.59
2018-12-17T17:50:24.314Z,102107.39
2018-12-17T17:52:52.497Z,102113.06
2018-12-17T17:55:20.694Z,102110.45
2018-12-17T17:57:48.878Z,102113.89
2018-12-17T18:00:17.152Z,102114.27
2018-12-17T18:02:45.353Z,102112.13
2018-12-17T18:05:13.650Z,102113.02
2018-12-17T18:07:41.965Z,102115.63
2018-12-17T18:10:11.068Z,102107.34
2018-12-17T18:12:40.072Z,102116.09
2018-12-17T18:15:08.644Z,102111.66
2018-12-17T18:17:36.938Z,102114.73
2018-12-17T18:20:05.704Z,102119.49
2018-12-17T18:22:33.868Z,102121.68
2018-12-17T18:25:02.094Z,102119.48
2018-12-17T18:27:30.586Z,102119.07
2018-12-17T18:29:59.112Z,102122.08
2018-12-17T18:32:27.389Z,102126.42
2018-12-17T18:34:55.606Z,102122.10
2018-12-17T18:37:25.117Z,102125.55
2018-12-17T18:39:53.693Z,102129.45
2018-12-17T18:42:23.406Z,102075.45
2018-12-17T19:05:22.283Z,102132.86
2018-12-17T19:08:26.825Z,102128.09
2018-12-17T19:10:56.029Z,102127.61
2018-12-17T19:13:30.996Z,102136.30
2018-12-17T19:15:59.255Z,102134.13
2018-12-17T19:18:29.064Z,102142.78
2018-12-17T19:20:57.340Z,102144.54
2018-12-17T19:23:25.620Z,102138.45
2018-12-17T19:25:53.877Z,102129.38
2018-12-17T19:28:35.699Z,102141.93
2018-12-17T19:31:18.668Z,102146.17
2018-12-17T19:34:35.630Z,102149.72
2018-12-17T19:37:04.363Z,102143.23
2018-12-17T19:42:44.284Z,102150.98
2018-12-17T19:47:58.877Z,102148.37
2018-12-17T19:50:27.673Z,102151.41
2018-12-17T19:56:03.624Z,102157.45
2018-12-17T19:59:45.252Z,102157.91
2018-12-17T20:02:13.604Z,102155.72
2018-12-17T20:04:41.916Z,102161.34
2018-12-17T20:07:14.037Z,102163.51
2018-12-17T20:09:47.744Z,102161.77
2018-12-17T20:12:16.081Z,102160.91
2018-12-17T20:14:44.354Z,102170.42
2018-12-17T20:17:12.752Z,102169.56
2018-12-17T20:19:41.008Z,102171.70
2018-12-17T20:22:09.424Z,102171.25
2018-12-17T20:24:37.811Z,102170.80
2018-12-17T20:27:06.199Z,102170.34
2018-12-17T20:29:34.452Z,102173.84
2018-12-17T20:32:03.082Z,102168.56
2018-12-17T20:40:40.836Z,102178.95
2018-12-17T20:47:02.090Z,102179.37
2018-12-17T20:49:30.325Z,102179.33
2018-12-17T20:51:59.758Z,102190.17
2018-12-17T20:54:48.382Z,102188.03
2018-12-17T20:57:29.186Z,102179.81
2018-12-17T21:03:02.958Z,102191.83
2018-12-17T21:05:36.900Z,102190.11
2018-12-17T21:11:04.935Z,102182.63
2018-12-17T21:13:49.512Z,102178.70
2018-12-17T21:16:19.296Z,102165.23
2018-12-17T21:18:47.865Z,102179.51
2018-12-17T21:24:36.240Z,102179.45
2018-12-17T21:27:10.332Z,102183.39
2018-12-17T21:29:38.668Z,102179.00
2018-12-17T21:32:08.146Z,102181.14
2018-12-17T21:34:36.646Z,102181.14
2018-12-17T21:37:18.821Z,102171.55
2018-12-17T21:39:47.397Z,102170.66
2018-12-17T21:48:24.508Z,102172.83
2018-12-17T21:54:50.994Z,102164.49
2018-12-17T22:03:42.086Z,102176.62
2018-12-17T22:13:11.593Z,102185.28
2018-12-17T22:17:32.484Z,102187.42
2018-12-17T22:20:18.343Z,102189.61
2018-12-17T22:22:48.572Z,102189.59
2018-12-17T22:34:18.276Z,102209.94
2018-12-17T22:36:52.615Z,102212.52
2018-12-17T22:39:29.286Z,102209.49
2018-12-17T22:42:03.464Z,102147.67
2018-12-17T22:44:42.210Z,102215.95
2018-12-17T22:47:21.734Z,102219.01
2018-12-17T22:49:52.460Z,102218.56
2018-12-17T23:06:46.589Z,102219.69
2018-12-17T23:28:55.603Z,102200.76
2018-12-17T23:31:23.861Z,102198.50
2018-12-17T23:33:58.406Z,102199.39
2018-12-17T23:36:58.771Z,102209.33
2018-12-17T23:39:31.435Z,102207.21
2018-12-17T23:42:28.714Z,102203.20
2018-12-17T23:45:03.431Z,102201.92
2018-12-17T23:47:33.692Z,102209.27
